Time,TemperatureF,DewpointF,PressureIn,WindDirection,WindDirectionDegrees,WindSpeedMPH,WindSpeedGustMPH,Humidity,HourlyPrecipIn,Conditions,Clouds,dailyrainin,SoftwareType,DateUTC
2013-01-22 00:00:00,28.0,1.0,-100.00,East,97,0.0,5.0,30,-99.99,,,-99.99,,2013-01-22 07:00:00,
2013-01-22 00:33:00,28.0,1.0,-100.00,East,97,0.0,5.0,30,-99.99,,,-99.99,,2013-01-22 07:33:00,
2013-01-22 00:42:00,28.0,1.0,-100.00,East,97,0.0,5.0,30,-99.99,,,-99.99,,2013-01-22 07:42:00,
2013-01-22 00:52:00,28.0,1.0,-100.00,East,97,0.0,5.0,30,-99.99,,,-99.99,,2013-01-22 07:52:00,
2013-01-22 01:00:00,30.0,-5.0,-100.00,East,83,0.0,5.0,21,-99.99,,,-99.99,,2013-01-22 08:00:00,
2013-01-22 01:33:00,30.0,-5.0,-100.00,East,83,0.0,5.0,21,-99.99,,,-99.99,,2013-01-22 08:33:00,
2013-01-22 01:43:00,30.0,-5.0,-100.00,East,83,0.0,5.0,21,-99.99,,,-99.99,,2013-01-22 08:43:00,
2013-01-22 01:52:00,30.0,-5.0,-100.00,East,83,0.0,5.0,21,-99.99,,,-99.99,,2013-01-22 08:52:00,
2013-01-22 02:00:00,31.0,3.0,-100.00,East,87,0.0,4.0,29,-99.99,,,-99.99,,2013-01-22 09:00:00,
2013-01-22 02:33:00,31.0,3.0,-100.00,East,87,0.0,4.0,29,-99.99,,,-99.99,,2013-01-22 09:33:00,
2013-01-22 02:43:00,31.0,3.0,-100.00,East,87,0.0,4.0,29,-99.99,,,-99.99,,2013-01-22 09:43:00,
2013-01-22 02:52:00,31.0,3.0,-100.00,East,87,0.0,4.0,29,-99.99,,,-99.99,,2013-01-22 09:52:00,
2013-01-22 03:00:00,28.0,1.0,-100.00,East,83,1.0,6.0,30,-99.99,,,-99.99,,2013-01-22 10:00:00,
2013-01-22 03:33:00,28.0,1.0,-100.00,East,83,1.0,6.0,30,-99.99,,,-99.99,,2013-01-22 10:33:00,
2013-01-22 03:42:00,28.0,1.0,-100.00,East,83,1.0,6.0,30,-99.99,,,-99.99,,2013-01-22 10:42:00,
2013-01-22 03:52:00,28.0,1.0,-100.00,East,83,1.0,6.0,30,-99.99,,,-99.99,,2013-01-22 10:52:00,
2013-01-22 04:00:00,31.0,2.0,-100.00,ENE,59,0.0,2.0,28,-99.99,,,-99.99,,2013-01-22 11:00:00,
2013-01-22 04:33:00,31.0,2.0,-100.00,ENE,59,0.0,2.0,28,-99.99,,,-99.99,,2013-01-22 11:33:00,
2013-01-22 04:43:00,31.0,2.0,-100.00,ENE,59,0.0,2.0,28,-99.99,,,-99.99,,2013-01-22 11:43:00,
2013-01-22 04:53:00,31.0,2.0,-100.00,ENE,59,0.0,2.0,28,-99.99,,,-99.99,,2013-01-22 11:53:00,
2013-01-22 05:00:00,31.0,-4.0,-100.00,ENE,62,0.0,2.0,21,-99.99,,,-99.99,,2013-01-22 12:00:00,
2013-01-22 05:33:00,31.0,-4.0,-100.00,ENE,62,0.0,2.0,21,-99.99,,,-99.99,,2013-01-22 12:33:00,
2013-01-22 05:43:00,31.0,-4.0,-100.00,ENE,62,0.0,2.0,21,-99.99,,,-99.99,,2013-01-22 12:43:00,
2013-01-22 05:53:00,31.0,-4.0,-100.00,ENE,62,0.0,2.0,21,-99.99,,,-99.99,,2013-01-22 12:53:00,
2013-01-22 06:00:00,32.0,3.0,-100.00,ENE,78,0.0,5.0,27,-99.99,,,-99.99,,2013-01-22 13:00:00,
2013-01-22 06:33:00,32.0,3.0,-100.00,ENE,78,0.0,5.0,27,-99.99,,,-99.99,,2013-01-22 13:33:00,
2013-01-22 06:43:00,32.0,3.0,-100.00,ENE,78,0.0,5.0,27,-99.99,,,-99.99,,2013-01-22 13:43:00,
2013-01-22 06:53:00,32.0,3.0,-100.00,ENE,78,0.0,5.0,27,-99.99,,,-99.99,,2013-01-22 13:53:00,
2013-01-22 07:00:00,31.0,1.0,-100.00,ENE,61,1.0,7.0,27,-99.99,,,-99.99,,2013-01-22 14:00:00,
2013-01-22 07:34:00,31.0,1.0,-100.00,ENE,61,1.0,7.0,27,-99.99,,,-99.99,,2013-01-22 14:34:00,
2013-01-22 07:44:00,31.0,1.0,-100.00,ENE,61,1.0,7.0,27,-99.99,,,-99.99,,2013-01-22 14:44:00,
2013-01-22 07:53:00,31.0,1.0,-100.00,ENE,61,1.0,7.0,27,-99.99,,,-99.99,,2013-01-22 14:53:00,
2013-01-22 08:00:00,31.0,-1.0,-100.00,East,93,0.0,0.0,25,-99.99,,,-99.99,,2013-01-22 15:00:00,
2013-01-22 08:34:00,31.0,-1.0,-100.00,East,93,0.0,0.0,25,-99.99,,,-99.99,,2013-01-22 15:34:00,
2013-01-22 08:43:00,31.0,-1.0,-100.00,East,93,0.0,0.0,25,-99.99,,,-99.99,,2013-01-22 15:43:00,
2013-01-22 08:53:00,31.0,-1.0,-100.00,East,93,0.0,0.0,25,-99.99,,,-99.99,,2013-01-22 15:53:00,
2013-01-22 09:00:00,32.0,1.0,-100.00,SE,140,1.0,4.0,26,-99.99,,,-99.99,,2013-01-22 16:00:00,
2013-01-22 09:33:00,32.0,1.0,-100.00,SE,140,1.0,4.0,26,-99.99,,,-99.99,,2013-01-22 16:33:00,
2013-01-22 09:43:00,32.0,1.0,-100.00,SE,140,1.0,4.0,26,-99.99,,,-99.99,,2013-01-22 16:43:00,
2013-01-22 09:53:00,32.0,1.0,-100.00,SE,140,1.0,4.0,26,-99.99,,,-99.99,,2013-01-22 16:53:00,
2013-01-22 10:00:00,37.0,1.0,-100.00,SSE,148,1.0,7.0,21,-99.99,,,-99.99,,2013-01-22 17:00:00,
2013-01-22 10:35:00,37.0,1.0,-100.00,SSE,148,1.0,7.0,21,-99.99,,,-99.99,,2013-01-22 17:35:00,
2013-01-22 10:44:00,37.0,1.0,-100.00,SSE,148,1.0,7.0,21,-99.99,,,-99.99,,2013-01-22 17:44:00,
2013-01-22 10:53:00,37.0,1.0,-100.00,SSE,148,1.0,7.0,21,-99.99,,,-99.99,,2013-01-22 17:53:00,
2013-01-22 11:00:00,36.0,-2.0,-100.00,SE,144,0.0,0.0,19,-99.99,,,-99.99,,2013-01-22 18:00:00,
2013-01-22 11:34:00,36.0,-2.0,-100.00,SE,144,0.0,0.0,19,-99.99,,,-99.99,,2013-01-22 18:34:00,
2013-01-22 11:43:00,36.0,-2.0,-100.00,SE,144,0.0,0.0,19,-99.99,,,-99.99,,2013-01-22 18:43:00,
2013-01-22 11:53:00,36.0,-2.0,-100.00,SE,144,0.0,0.0,19,-99.99,,,-99.99,,2013-01-22 18:53:00,
2013-01-22 13:00:00,39.0,2.0,-100.00,SE,131,0.0,5.0,20,-99.99,,,-99.99,,2013-01-22 20:00:00,
2013-01-22 13:34:00,39.0,2.0,-100.00,SE,131,0.0,5.0,20,-99.99,,,-99.99,,2013-01-22 20:34:00,
2013-01-22 13:43:00,39.0,2.0,-100.00,SE,131,0.0,5.0,20,-99.99,,,-99.99,,2013-01-22 20:43:00,
2013-01-22 13:53:00,39.0,2.0,-100.00,SE,131,0.0,5.0,20,-99.99,,,-99.99,,2013-01-22 20:53:00,
2013-01-22 14:00:00,39.0,2.0,-100.00,ESE,116,0.0,0.0,21,-99.99,,,-99.99,,2013-01-22 21:00:00,
2013-01-22 14:34:00,39.0,2.0,-100.00,ESE,116,0.0,0.0,21,-99.99,,,-99.99,,2013-01-22 21:34:00,
2013-01-22 14:43:00,39.0,2.0,-100.00,ESE,116,0.0,0.0,21,-99.99,,,-99.99,,2013-01-22 21:43:00,
2013-01-22 14:53:00,39.0,2.0,-100.00,ESE,116,0.0,0.0,21,-99.99,,,-99.99,,2013-01-22 21:53:00,
2013-01-22 15:00:00,38.0,2.0,-100.00,East,86,0.0,0.0,21,-99.99,,,-99.99,,2013-01-22 22:00:00,
2013-01-22 15:33:00,38.0,2.0,-100.00,East,86,0.0,0.0,21,-99.99,,,-99.99,,2013-01-22 22:33:00,
2013-01-22 15:43:00,38.0,2.0,-100.00,East,86,0.0,0.0,21,-99.99,,,-99.99,,2013-01-22 22:43:00,
2013-01-22 15:53:00,38.0,2.0,-100.00,East,86,0.0,0.0,21,-99.99,,,-99.99,,2013-01-22 22:53:00,
2013-01-22 16:00:00,36.0,-1.0,-100.00,East,87,4.0,13.0,20,-99.99,,,-99.99,,2013-01-22 23:00:00,
2013-01-22 16:33:00,36.0,-1.0,-100.00,East,87,4.0,13.0,20,-99.99,,,-99.99,,2013-01-22 23:33:00,
2013-01-22 16:43:00,36.0,-1.0,-100.00,East,87,4.0,13.0,20,-99.99,,,-99.99,,2013-01-22 23:43:00,
2013-01-22 16:53:00,36.0,-1.0,-100.00,East,87,4.0,13.0,20,-99.99,,,-99.99,,2013-01-22 23:53:00,
2013-01-22 17:00:00,36.0,-4.0,-100.00,ESE,105,7.0,13.0,17,-99.99,,,-99.99,,2013-01-23 00:00:00,
2013-01-22 17:33:00,36.0,-4.0,-100.00,ESE,105,7.0,13.0,17,-99.99,,,-99.99,,2013-01-23 00:33:00,
2013-01-22 17:43:00,36.0,-4.0,-100.00,ESE,105,7.0,13.0,17,-99.99,,,-99.99,,2013-01-23 00:43:00,
2013-01-22 17:52:00,36.0,-4.0,-100.00,ESE,105,7.0,13.0,17,-99.99,,,-99.99,,2013-01-23 00:52:00,
2013-01-22 18:00:00,36.0,2.0,-100.00,SE,131,4.0,11.0,23,-99.99,,,-99.99,,2013-01-23 01:00:00,
2013-01-22 18:33:00,36.0,2.0,-100.00,SE,131,4.0,11.0,23,-99.99,,,-99.99,,2013-01-23 01:33:00,
2013-01-22 18:43:00,36.0,2.0,-100.00,SE,131,4.0,11.0,23,-99.99,,,-99.99,,2013-01-23 01:43:00,
2013-01-22 18:53:00,36.0,2.0,-100.00,SE,131,4.0,11.0,23,-99.99,,,-99.99,,2013-01-23 01:53:00,
2013-01-22 19:00:00,35.0,1.0,-100.00,South,179,0.0,0.0,22,-99.99,,,-99.99,,2013-01-23 02:00:00,
2013-01-22 19:33:00,35.0,1.0,-100.00,South,179,0.0,0.0,22,-99.99,,,-99.99,,2013-01-23 02:33:00,
2013-01-22 19:43:00,35.0,1.0,-100.00,South,179,0.0,0.0,22,-99.99,,,-99.99,,2013-01-23 02:43:00,
2013-01-22 19:53:00,35.0,1.0,-100.00,South,179,0.0,0.0,22,-99.99,,,-99.99,,2013-01-23 02:53:00,
2013-01-22 20:00:00,35.0,-2.0,-100.00,SE,144,0.0,0.0,19,-99.99,,,-99.99,,2013-01-23 03:00:00,
2013-01-22 20:33:00,35.0,-2.0,-100.00,SE,144,0.0,0.0,19,-99.99,,,-99.99,,2013-01-23 03:33:00,
2013-01-22 20:43:00,35.0,-2.0,-100.00,SE,144,0.0,0.0,19,-99.99,,,-99.99,,2013-01-23 03:43:00,
2013-01-22 20:53:00,35.0,-2.0,-100.00,SE,144,0.0,0.0,19,-99.99,,,-99.99,,2013-01-23 03:53:00,
2013-01-22 21:00:00,34.0,-2.0,-100.00,SSE,148,1.0,8.0,20,-99.99,,,-99.99,,2013-01-23 04:00:00,
2013-01-22 21:33:00,34.0,-2.0,-100.00,SSE,148,1.0,8.0,20,-99.99,,,-99.99,,2013-01-23 04:33:00,
2013-01-22 21:43:00,34.0,-2.0,-100.00,SSE,148,1.0,8.0,20,-99.99,,,-99.99,,2013-01-23 04:43:00,
2013-01-22 21:53:00,34.0,-2.0,-100.00,SSE,148,1.0,8.0,20,-99.99,,,-99.99,,2013-01-23 04:53:00,
2013-01-22 22:00:00,34.0,-4.0,-100.00,SE,144,5.0,13.0,18,-99.99,,,-99.99,,2013-01-23 05:00:00,
2013-01-22 22:33:00,34.0,-4.0,-100.00,SE,144,5.0,13.0,18,-99.99,,,-99.99,,2013-01-23 05:33:00,
2013-01-22 22:43:00,34.0,-4.0,-100.00,SE,144,5.0,13.0,18,-99.99,,,-99.99,,2013-01-23 05:43:00,
2013-01-22 22:53:00,34.0,-4.0,-100.00,SE,144,5.0,13.0,18,-99.99,,,-99.99,,2013-01-23 05:53:00,
2013-01-22 23:00:00,34.0,1.0,-100.00,ESE,112,3.0,10.0,24,-99.99,,,-99.99,,2013-01-23 06:00:00,
2013-01-22 23:33:00,34.0,1.0,-100.00,ESE,112,3.0,10.0,24,-99.99,,,-99.99,,2013-01-23 06:33:00,
2013-01-22 23:43:00,34.0,1.0,-100.00,ESE,112,3.0,10.0,24,-99.99,,,-99.99,,2013-01-23 06:43:00,
2013-01-22 23:53:00,34.0,1.0,-100.00,ESE,112,3.0,10.0,24,-99.99,,,-99.99,,2013-01-23 06:53:00,